Time;durP1;ratioP1;P1;durP2;ratioP2;P2;SDS_P1;SDS_P2;PMS_P1;PMS_P2;Temp;Humidity;BMP_temperature;BMP_pressure;BME280_temperature;BME280_humidity;BME280_pressure;Samples;Min_cycle;Max_cycle;Signal;HPM_P1;HPM_P2
2021/05/05 00:00:31;;;;;;;8.63;1.70;;;6.90;92.50;;;;;;5027189;28;20029;-83
2021/05/05 00:02:57;;;;;;;9.68;1.88;;;7.00;92.60;;;;;;5026845;28;20029;-83
2021/05/05 00:05:23;;;;;;;7.18;2.00;;;7.10;92.60;;;;;;5027015;28;20108;-83
2021/05/05 00:07:49;;;;;;;9.57;1.92;;;7.10;92.60;;;;;;5010519;28;20048;-84
2021/05/05 00:10:16;;;;;;;6.85;2.08;;;7.10;92.60;;;;;;5027131;28;20057;-82
2021/05/05 00:12:42;;;;;;;3.83;1.70;;;7.10;92.50;;;;;;5028455;28;20025;-84
2021/05/05 00:15:17;;;;;;;9.07;1.63;;;7.10;92.50;;;;;;5010423;28;20056;-83
2021/05/05 00:17:43;;;;;;;6.25;1.77;;;7.10;92.60;;;;;;5028051;28;20021;-85
2021/05/05 00:20:10;;;;;;;8.07;1.98;;;7.10;92.50;;;;;;5028094;28;20033;-84
2021/05/05 00:22:36;;;;;;;3.97;1.60;;;7.10;92.50;;;;;;5010245;28;20025;-83
2021/05/05 00:25:04;;;;;;;11.82;1.73;;;7.10;92.60;;;;;;5027915;28;20080;-84
2021/05/05 00:27:29;;;;;;;3.55;1.10;;;7.10;92.60;;;;;;5027904;28;20075;-84
2021/05/05 00:29:56;;;;;;;8.20;1.73;;;7.10;92.60;;;;;;5010248;28;20025;-83
2021/05/05 00:32:21;;;;;;;9.00;1.95;;;7.10;92.60;;;;;;5010075;28;20110;-83
2021/05/05 00:34:47;;;;;;;5.38;1.50;;;7.20;92.70;;;;;;5010307;28;20116;-84
2021/05/05 00:37:13;;;;;;;7.65;1.90;;;7.20;92.40;;;;;;5010057;28;20057;-84
2021/05/05 00:39:38;;;;;;;5.65;2.30;;;7.00;92.30;;;;;;5010077;28;20456;-83
2021/05/05 00:42:04;;;;;;;7.47;2.10;;;7.00;92.30;;;;;;5026736;28;20125;-84
2021/05/05 00:44:30;;;;;;;5.63;2.00;;;6.90;92.30;;;;;;5028720;28;20489;-84
2021/05/05 00:46:56;;;;;;;6.75;1.63;;;6.80;92.40;;;;;;5013930;28;20128;-83
2021/05/05 00:49:21;;;;;;;4.05;1.63;;;6.70;92.40;;;;;;5030726;28;20088;-83
2021/05/05 00:51:47;;;;;;;5.28;1.85;;;6.70;92.50;;;;;;5030337;28;20021;-83
2021/05/05 00:54:13;;;;;;;6.10;1.80;;;6.60;92.60;;;;;;5031563;28;20045;-83
2021/05/05 00:56:38;;;;;;;6.72;1.83;;;6.60;92.70;;;;;;5030555;28;20030;-83
2021/05/05 00:59:04;;;;;;;11.55;2.17;;;6.50;92.80;;;;;;5030298;28;20040;-84
2021/05/05 01:01:30;;;;;;;3.42;1.50;;;6.50;92.90;;;;;;5031589;28;20025;-83
2021/05/05 01:03:56;;;;;;;5.90;1.80;;;6.40;92.90;;;;;;5030358;28;20057;-84
2021/05/05 01:06:21;;;;;;;8.95;1.75;;;6.40;93.00;;;;;;5030053;28;20037;-83
2021/05/05 01:08:48;;;;;;;5.22;1.88;;;6.30;93.10;;;;;;5030051;28;20030;-84
2021/05/05 01:11:14;;;;;;;6.03;1.48;;;6.30;93.20;;;;;;5013879;28;20022;-83
2021/05/05 01:13:44;;;;;;;3.90;2.20;;;6.30;93.20;;;;;;5030172;28;20022;-82
2021/05/05 01:16:13;;;;;;;4.68;1.80;;;6.20;93.30;;;;;;5029966;28;20671;-84
2021/05/05 01:18:38;;;;;;;9.20;1.70;;;6.20;93.30;;;;;;5013963;28;20042;-83
2021/05/05 01:21:04;;;;;;;7.15;1.83;;;6.10;93.40;;;;;;5029833;28;20033;-83
2021/05/05 01:23:30;;;;;;;7.38;1.60;;;6.10;93.40;;;;;;5013313;28;20069;-83
2021/05/05 01:25:56;;;;;;;5.15;1.90;;;6.00;93.40;;;;;;5013465;28;20066;-83
2021/05/05 01:28:23;;;;;;;7.78;2.90;;;6.00;93.50;;;;;;5029835;28;20504;-84
2021/05/05 01:30:49;;;;;;;7.68;1.98;;;6.00;93.60;;;;;;5030913;28;20045;-82
2021/05/05 01:33:15;;;;;;;3.42;1.63;;;6.00;93.60;;;;;;5030750;28;20100;-83
2021/05/05 01:35:43;;;;;;;3.83;1.58;;;6.00;93.70;;;;;;5013143;28;20029;-83
2021/05/05 01:38:09;;;;;;;5.85;2.05;;;6.10;93.80;;;;;;5029715;28;20045;-84
2021/05/05 01:40:36;;;;;;;4.63;1.80;;;6.10;93.90;;;;;;5030781;28;20021;-84
2021/05/05 01:43:04;;;;;;;5.00;1.90;;;6.20;94.10;;;;;;5013105;28;20057;-84
2021/05/05 01:45:30;;;;;;;7.63;2.22;;;6.30;94.20;;;;;;5029192;28;20060;-83
2021/05/05 01:48:04;;;;;;;4.70;1.50;;;6.40;94.30;;;;;;5029075;28;20053;-83
2021/05/05 01:50:30;;;;;;;6.32;2.40;;;6.50;94.50;;;;;;5029057;28;20025;-82
2021/05/05 01:52:56;;;;;;;5.03;1.40;;;6.50;94.40;;;;;;5029038;28;20388;-83
2021/05/05 01:55:22;;;;;;;7.18;1.75;;;6.60;94.50;;;;;;5027757;28;20045;-83
2021/05/05 01:57:48;;;;;;;2.75;1.20;;;6.70;94.60;;;;;;5012468;28;20033;-83
2021/05/05 02:00:26;;;;;;;3.55;1.75;;;6.70;94.60;;;;;;5028873;28;20033;-83
2021/05/05 02:02:52;;;;;;;4.28;1.25;;;6.70;94.60;;;;;;5028801;28;20026;-83
2021/05/05 02:05:17;;;;;;;2.92;1.30;;;6.80;94.50;;;;;;5012571;28;20517;-84
2021/05/05 02:07:43;;;;;;;3.35;1.48;;;6.80;94.40;;;;;;5028859;28;20030;-83
2021/05/05 02:10:12;;;;;;;3.47;1.30;;;6.80;94.40;;;;;;5028759;28;20029;-83
2021/05/05 02:12:38;;;;;;;6.00;1.50;;;6.70;94.30;;;;;;5028845;28;20034;-83
2021/05/05 02:15:06;;;;;;;7.05;1.60;;;6.70;94.40;;;;;;5028704;28;20634;-84
2021/05/05 02:17:32;;;;;;;3.95;1.30;;;6.70;94.50;;;;;;5012583;28;20033;-82
2021/05/05 02:19:58;;;;;;;4.18;1.75;;;6.70;94.50;;;;;;5029911;28;20515;-83
2021/05/05 02:22:23;;;;;;;5.07;1.27;;;6.70;94.50;;;;;;5028642;28;20464;-84
2021/05/05 02:24:49;;;;;;;7.57;2.08;;;6.70;94.50;;;;;;5012036;28;20473;-83
2021/05/05 02:27:16;;;;;;;3.33;1.60;;;6.70;94.50;;;;;;5028693;28;20036;-83
2021/05/05 02:29:42;;;;;;;5.28;1.63;;;6.70;94.50;;;;;;5012049;28;20037;-84
2021/05/05 02:32:14;;;;;;;4.53;1.40;;;6.70;94.50;;;;;;5028383;28;20018;-84
2021/05/05 02:34:41;;;;;;;2.78;1.45;;;6.70;94.70;;;;;;5028663;28;20025;-83
2021/05/05 02:37:09;;;;;;;3.97;1.50;;;6.70;94.60;;;;;;5028771;28;20028;-83
2021/05/05 02:39:42;;;;;;;3.60;1.83;;;6.70;94.70;;;;;;5028391;28;20025;-83
2021/05/05 02:42:14;;;;;;;2.75;1.50;;;6.70;94.70;;;;;;5028356;28;20087;-84
2021/05/05 02:44:41;;;;;;;3.78;1.75;;;6.70;94.70;;;;;;5029635;28;20041;-84
2021/05/05 02:47:07;;;;;;;7.68;1.98;;;6.70;94.60;;;;;;5029665;28;20033;-83
2021/05/05 02:49:33;;;;;;;3.53;1.75;;;6.70;94.60;;;;;;5028419;28;20412;-83
2021/05/05 02:52:00;;;;;;;4.28;1.98;;;6.70;94.60;;;;;;5028110;28;20025;-83
2021/05/05 02:54:26;;;;;;;3.70;1.67;;;6.60;94.70;;;;;;5027638;28;20531;-84
2021/05/05 02:56:52;;;;;;;4.53;1.65;;;6.60;94.70;;;;;;5028280;28;20033;-83
2021/05/05 02:59:18;;;;;;;2.53;1.50;;;6.50;94.60;;;;;;5028072;28;20071;-83
2021/05/05 03:01:44;;;;;;;2.38;1.63;;;6.40;94.70;;;;;;5011638;28;20032;-84
2021/05/05 03:04:09;;;;;;;5.13;1.63;;;6.40;94.70;;;;;;5011652;28;20489;-85
2021/05/05 03:06:35;;;;;;;2.63;1.33;;;6.30;94.80;;;;;;5011424;28;20045;-84
2021/05/05 03:09:06;;;;;;;5.45;1.63;;;6.30;94.80;;;;;;5011411;28;20500;-83
2021/05/05 03:11:31;;;;;;;3.25;1.60;;;6.30;94.80;;;;;;5028341;28;20108;-83
2021/05/05 03:13:57;;;;;;;2.28;1.15;;;6.20;94.90;;;;;;5027947;28;20355;-83
2021/05/05 03:16:23;;;;;;;2.13;1.20;;;6.10;94.90;;;;;;5029053;28;20025;-83
2021/05/05 03:18:51;;;;;;;5.25;1.40;;;6.10;95.00;;;;;;5044469;28;20029;-84
2021/05/05 03:21:17;;;;;;;5.30;1.90;;;6.10;95.10;;;;;;5029086;28;20021;-84
2021/05/05 03:23:43;;;;;;;2.78;1.10;;;6.00;95.00;;;;;;5027820;28;20362;-84
2021/05/05 03:26:09;;;;;;;5.28;1.52;;;6.00;95.00;;;;;;5027417;28;20025;-83
2021/05/05 03:28:35;;;;;;;2.90;1.40;;;6.00;95.00;;;;;;5011375;28;20033;-83
2021/05/05 03:31:00;;;;;;;3.08;1.35;;;6.00;94.90;;;;;;5027782;28;20591;-83
2021/05/05 03:33:26;;;;;;;3.63;1.20;;;5.90;94.90;;;;;;5027683;28;20032;-83
2021/05/05 03:35:52;;;;;;;1.98;1.20;;;5.90;95.00;;;;;;5011332;28;20112;-84
2021/05/05 03:38:18;;;;;;;2.05;0.93;;;5.90;95.00;;;;;;5011696;28;20056;-82
2021/05/05 03:40:44;;;;;;;4.10;1.50;;;5.80;94.90;;;;;;5027961;28;20033;-83
2021/05/05 03:43:09;;;;;;;3.13;1.42;;;5.80;95.00;;;;;;5027869;28;20446;-83
2021/05/05 03:45:35;;;;;;;2.40;1.00;;;5.80;95.00;;;;;;5029893;28;20029;-83
2021/05/05 03:48:01;;;;;;;1.85;0.95;;;5.80;95.00;;;;;;5027807;28;20036;-83
2021/05/05 03:50:27;;;;;;;2.80;1.15;;;5.70;94.90;;;;;;5011182;28;20049;-83
2021/05/05 03:52:53;;;;;;;3.08;1.15;;;5.70;94.90;;;;;;5010861;28;20496;-83
2021/05/05 03:55:20;;;;;;;4.25;1.30;;;5.70;94.90;;;;;;5026929;28;20080;-83
2021/05/05 03:57:46;;;;;;;2.20;0.95;;;5.60;94.90;;;;;;5028155;28;20025;-83
2021/05/05 04:00:12;;;;;;;3.55;1.13;;;5.60;94.90;;;;;;5026916;28;20397;-82
2021/05/05 04:02:38;;;;;;;4.88;1.58;;;5.60;95.00;;;;;;5010493;28;20044;-83
2021/05/05 04:05:04;;;;;;;1.58;0.80;;;5.60;95.00;;;;;;5028249;28;20049;-83
2021/05/05 04:07:30;;;;;;;3.00;1.08;;;5.50;94.90;;;;;;5010409;28;20095;-83
2021/05/05 04:09:56;;;;;;;3.13;1.20;;;5.50;94.90;;;;;;5043635;28;20030;-83
2021/05/05 04:12:22;;;;;;;3.42;0.88;;;5.50;95.00;;;;;;5026680;28;20045;-83
2021/05/05 04:14:48;;;;;;;3.17;1.38;;;5.50;95.00;;;;;;5027158;28;20037;-84
2021/05/05 04:17:14;;;;;;;4.72;1.02;;;5.50;95.00;;;;;;5028621;28;20033;-83
2021/05/05 04:19:40;;;;;;;5.32;1.13;;;5.40;94.90;;;;;;5028046;28;20393;-83
2021/05/05 04:22:06;;;;;;;2.45;0.77;;;5.40;94.90;;;;;;5011004;28;20034;-83
2021/05/05 04:24:32;;;;;;;4.90;1.10;;;5.30;94.90;;;;;;5028254;28;20021;-83
2021/05/05 04:26:58;;;;;;;5.75;1.30;;;5.30;94.90;;;;;;5027368;28;20427;-84
2021/05/05 04:29:24;;;;;;;8.07;1.10;;;5.30;94.90;;;;;;5027219;28;20025;-83
2021/05/05 04:31:54;;;;;;;2.78;0.88;;;5.20;95.00;;;;;;5010060;28;20052;-83
2021/05/05 04:34:21;;;;;;;1.10;0.80;;;5.20;95.00;;;;;;5010652;28;20032;-83
2021/05/05 04:36:46;;;;;;;1.90;0.88;;;5.20;95.00;;;;;;5027985;28;20030;-83
2021/05/05 04:39:12;;;;;;;8.02;1.30;;;5.20;95.00;;;;;;5026482;28;20025;-83
2021/05/05 04:41:38;;;;;;;3.17;0.93;;;5.20;95.10;;;;;;5026627;28;20037;-83
2021/05/05 04:44:05;;;;;;;2.67;1.00;;;5.10;95.10;;;;;;5027940;28;20205;-83
2021/05/05 04:46:31;;;;;;;2.35;1.00;;;5.10;95.10;;;;;;5026840;28;20035;-82
2021/05/05 04:48:56;;;;;;;6.65;1.17;;;5.10;95.10;;;;;;5010222;28;20030;-83
2021/05/05 04:51:22;;;;;;;2.08;1.05;;;5.10;95.10;;;;;;5010610;28;20025;-83
2021/05/05 04:53:48;;;;;;;5.13;0.98;;;5.10;95.10;;;;;;5010581;28;20080;-83
2021/05/05 04:56:14;;;;;;;5.78;1.02;;;5.10;95.10;;;;;;5026795;28;20049;-83
2021/05/05 04:58:39;;;;;;;4.25;1.30;;;5.00;95.10;;;;;;5026898;28;20026;-83
2021/05/05 05:01:05;;;;;;;2.95;1.00;;;5.10;95.20;;;;;;5043285;28;20083;-83
2021/05/05 05:03:31;;;;;;;4.75;1.73;;;5.10;95.20;;;;;;5009803;28;20392;-83
2021/05/05 05:05:57;;;;;;;4.32;1.38;;;5.10;95.20;;;;;;5026118;28;20625;-83
2021/05/05 05:08:22;;;;;;;4.85;1.20;;;5.10;95.20;;;;;;5026505;28;20053;-83
2021/05/05 05:10:48;;;;;;;3.08;1.10;;;5.10;95.20;;;;;;5026509;28;20029;-83
2021/05/05 05:13:14;;;;;;;4.10;1.05;;;5.20;95.20;;;;;;5026390;28;20109;-83
2021/05/05 05:15:39;;;;;;;1.48;0.88;;;5.20;95.10;;;;;;5026638;28;20021;-83
2021/05/05 05:18:05;;;;;;;2.45;1.20;;;5.20;95.10;;;;;;5026524;28;20411;-83
2021/05/05 05:20:31;;;;;;;3.30;1.25;;;5.20;95.10;;;;;;5026636;28;20028;-83
2021/05/05 05:22:57;;;;;;;1.35;0.93;;;5.30;95.10;;;;;;5027546;28;20025;-83
2021/05/05 05:25:27;;;;;;;2.33;1.13;;;5.30;95.10;;;;;;5026325;28;20037;-83
2021/05/05 05:27:53;;;;;;;3.85;1.73;;;5.30;95.10;;;;;;5026102;28;20491;-82
2021/05/05 05:30:23;;;;;;;6.30;1.30;;;5.30;95.10;;;;;;5026563;28;20049;-83
2021/05/05 05:32:49;;;;;;;5.55;1.70;;;5.30;95.10;;;;;;5030611;28;20488;-83
2021/05/05 05:35:15;;;;;;;4.07;1.30;;;5.40;95.20;;;;;;5031185;28;20043;-83
2021/05/05 05:37:41;;;;;;;2.40;1.23;;;5.50;95.20;;;;;;5013123;28;20443;-83
2021/05/05 05:40:08;;;;;;;4.43;1.00;;;5.50;95.10;;;;;;5031476;28;20029;-83
2021/05/05 05:42:34;;;;;;;3.78;1.40;;;5.60;95.10;;;;;;5029448;28;20025;-83
2021/05/05 05:45:00;;;;;;;5.07;1.20;;;5.70;95.00;;;;;;5030657;28;20435;-82
2021/05/05 05:47:25;;;;;;;3.33;1.23;;;5.70;95.00;;;;;;5029528;28;20025;-83
2021/05/05 05:49:51;;;;;;;3.25;0.98;;;5.80;95.00;;;;;;5029163;28;20032;-83
2021/05/05 05:52:17;;;;;;;3.97;1.52;;;5.80;94.90;;;;;;5029569;28;20030;-83
2021/05/05 05:54:43;;;;;;;3.58;1.42;;;5.90;94.90;;;;;;5028871;28;20506;-83
2021/05/05 05:57:09;;;;;;;4.45;0.90;;;6.00;95.00;;;;;;5028994;28;20140;-83
2021/05/05 05:59:36;;;;;;;5.28;1.27;;;6.10;95.00;;;;;;5029165;28;20206;-83
2021/05/05 06:02:02;;;;;;;4.68;1.00;;;6.30;95.00;;;;;;5029731;28;20033;-83
2021/05/05 06:04:27;;;;;;;4.10;1.00;;;6.50;94.70;;;;;;5029371;28;20036;-82
2021/05/05 06:06:53;;;;;;;2.60;1.05;;;6.60;94.50;;;;;;5012722;28;20128;-83
2021/05/05 06:09:19;;;;;;;2.08;0.80;;;6.70;94.30;;;;;;5029596;28;20044;-82
2021/05/05 06:11:45;;;;;;;3.03;1.10;;;6.80;94.30;;;;;;5028805;28;20033;-83
2021/05/05 06:14:13;;;;;;;5.43;0.93;;;6.80;94.10;;;;;;5029033;28;20026;-81
2021/05/05 06:16:38;;;;;;;4.22;1.27;;;6.80;94.00;;;;;;5012810;28;20033;-82
2021/05/05 06:19:04;;;;;;;5.35;1.30;;;6.90;93.90;;;;;;5029060;28;20554;-83
2021/05/05 06:21:30;;;;;;;2.45;1.08;;;6.90;93.90;;;;;;5012690;28;20036;-83
2021/05/05 06:23:56;;;;;;;3.42;1.20;;;6.90;93.90;;;;;;5030815;28;20400;-82
2021/05/05 06:26:21;;;;;;;2.80;0.85;;;6.90;94.00;;;;;;5028767;28;20087;-82
2021/05/05 06:28:47;;;;;;;2.70;0.88;;;7.00;94.10;;;;;;5030613;28;20067;-83
2021/05/05 06:31:13;;;;;;;4.45;1.42;;;7.20;94.10;;;;;;5029031;28;20546;-81
2021/05/05 06:33:39;;;;;;;5.85;1.02;;;7.30;93.80;;;;;;5028727;28;20021;-82
2021/05/05 06:36:06;;;;;;;2.67;1.00;;;7.30;93.70;;;;;;5030151;28;20049;-83
2021/05/05 06:38:32;;;;;;;3.10;1.00;;;7.40;93.60;;;;;;5030441;28;20053;-83
2021/05/05 06:40:57;;;;;;;1.95;1.25;;;7.40;93.70;;;;;;5028511;28;20033;-83
2021/05/05 06:43:23;;;;;;;3.28;1.17;;;7.40;93.70;;;;;;5029105;28;20029;-83
2021/05/05 06:45:49;;;;;;;2.30;1.00;;;7.50;93.70;;;;;;5030356;28;20139;-82
2021/05/05 06:48:14;;;;;;;2.38;0.90;;;7.50;93.50;;;;;;5013549;28;20038;-83
2021/05/05 06:50:40;;;;;;;5.43;1.20;;;7.50;93.30;;;;;;5030451;28;20527;-83
2021/05/05 06:53:06;;;;;;;3.80;1.08;;;7.50;93.10;;;;;;5028980;28;20419;-83
2021/05/05 06:55:32;;;;;;;3.08;1.38;;;7.50;93.10;;;;;;5029631;28;20052;-83
2021/05/05 06:57:58;;;;;;;5.22;1.85;;;7.50;93.20;;;;;;5012300;28;20037;-84
2021/05/05 07:00:24;;;;;;;2.85;1.02;;;7.50;93.40;;;;;;5028653;28;20033;-84
2021/05/05 07:02:50;;;;;;;2.65;1.10;;;7.50;93.50;;;;;;5012097;28;20095;-83
2021/05/05 07:05:15;;;;;;;4.90;1.63;;;7.60;93.60;;;;;;5028733;28;20029;-83
2021/05/05 07:07:41;;;;;;;2.80;1.42;;;7.60;93.50;;;;;;5029387;28;20053;-83
2021/05/05 07:10:10;;;;;;;3.55;1.42;;;7.70;93.70;;;;;;5012463;28;20057;-84
2021/05/05 07:12:36;;;;;;;5.78;1.42;;;7.80;94.00;;;;;;5030131;28;20077;-83
2021/05/05 07:15:02;;;;;;;3.15;0.80;;;8.80;95.90;;;;;;5028381;28;20190;-82
2021/05/05 07:17:28;;;;;;;3.13;1.10;;;10.60;95.40;;;;;;5011020;28;20048;-83
2021/05/05 07:19:54;;;;;;;3.67;1.33;;;12.50;93.00;;;;;;5028742;28;20067;-84
2021/05/05 07:22:20;;;;;;;6.15;1.38;;;14.00;90.00;;;;;;5027456;28;20025;-82
2021/05/05 07:24:46;;;;;;;4.15;1.10;;;15.20;84.10;;;;;;5027055;28;20042;-82
2021/05/05 07:27:13;;;;;;;1.65;0.73;;;15.70;79.70;;;;;;5026750;28;20025;-83
2021/05/05 07:29:39;;;;;;;2.17;1.30;;;15.60;76.50;;;;;;5026706;28;20332;-81
2021/05/05 07:32:06;;;;;;;3.05;1.05;;;15.50;75.70;;;;;;5028185;28;20108;-83
2021/05/05 07:34:32;;;;;;;4.38;1.30;;;16.00;77.30;;;;;;5027195;28;20104;-84
2021/05/05 07:37:06;;;;;;;3.08;0.93;;;16.90;75.30;;;;;;5028071;28;20124;-83
2021/05/05 07:47:11;;;;;;;2.10;0.85;;;20.30;64.60;;;;;;5027970;28;20025;-82
2021/05/05 07:50:00;;;;;;;3.60;0.93;;;20.90;62.80;;;;;;5028351;28;20128;-83
2021/05/05 07:52:23;;;;;;;3.78;1.20;;;21.50;61.50;;;;;;5025640;28;20072;-82
2021/05/05 07:54:49;;;;;;;3.88;1.17;;;22.20;60.00;;;;;;5009103;28;20084;-82
2021/05/05 07:57:15;;;;;;;5.75;1.35;;;22.40;58.00;;;;;;5027850;28;20078;-83
2021/05/05 07:59:41;;;;;;;3.63;1.15;;;22.50;57.50;;;;;;5010024;28;20033;-83
2021/05/05 08:02:07;;;;;;;2.60;1.00;;;22.70;56.40;;;;;;5009984;28;20500;-82
2021/05/05 08:04:33;;;;;;;2.47;0.95;;;22.60;54.30;;;;;;5026372;28;20025;-83
2021/05/05 08:07:00;;;;;;;3.35;1.00;;;22.10;53.50;;;;;;5026031;28;20030;-83
2021/05/05 08:09:27;;;;;;;3.95;1.45;;;22.20;54.30;;;;;;5026092;28;20047;-82
2021/05/05 08:11:53;;;;;;;6.78;1.30;;;22.90;54.00;;;;;;5028096;28;20029;-83
2021/05/05 08:14:19;;;;;;;4.72;1.30;;;23.80;53.40;;;;;;5009873;28;20021;-82
2021/05/05 08:16:46;;;;;;;3.75;1.58;;;24.40;52.00;;;;;;5026107;28;20036;-82
2021/05/05 08:19:12;;;;;;;7.72;1.45;;;24.80;50.90;;;;;;5027485;28;20032;-73
2021/05/05 08:21:37;;;;;;;3.95;1.00;;;25.20;49.40;;;;;;5010560;28;20026;-83
2021/05/05 08:24:04;;;;;;;3.50;0.88;;;25.40;48.80;;;;;;5010132;28;20021;-83
2021/05/05 08:26:30;;;;;;;4.93;1.63;;;25.60;48.00;;;;;;5026525;28;20049;-82
2021/05/05 08:28:58;;;;;;;3.65;1.05;;;25.80;47.80;;;;;;5026311;28;20076;-83
2021/05/05 08:31:24;;;;;;;3.60;1.10;;;26.20;47.50;;;;;;5027471;28;20554;-82
2021/05/05 08:33:49;;;;;;;4.03;1.23;;;26.70;47.10;;;;;;5025860;28;20407;-83
2021/05/05 08:36:15;;;;;;;3.72;1.08;;;26.90;45.50;;;;;;5026172;28;20026;-82
2021/05/05 08:38:41;;;;;;;5.43;1.17;;;25.80;44.00;;;;;;5010437;28;20143;-84
2021/05/05 08:41:10;;;;;;;5.22;1.48;;;24.60;44.20;;;;;;5026617;28;20033;-82
2021/05/05 08:43:36;;;;;;;2.33;1.00;;;24.20;45.80;;;;;;5026752;28;20053;-83
2021/05/05 08:46:06;;;;;;;8.88;1.30;;;24.60;47.10;;;;;;5025481;28;20042;-83
2021/05/05 08:48:32;;;;;;;3.13;1.30;;;25.50;46.60;;;;;;5027155;28;20112;-83
2021/05/05 08:50:58;;;;;;;6.50;1.60;;;25.80;45.10;;;;;;5027735;28;20133;-83
2021/05/05 08:53:24;;;;;;;6.88;1.23;;;24.90;42.70;;;;;;5042836;28;20036;-83
2021/05/05 08:55:49;;;;;;;4.70;1.10;;;23.10;43.10;;;;;;5025451;28;20053;-81
2021/05/05 08:58:15;;;;;;;4.55;1.10;;;22.00;45.40;;;;;;5025982;28;20126;-82
2021/05/05 09:00:41;;;;;;;6.65;1.30;;;22.20;47.20;;;;;;5009429;28;20049;-82
2021/05/05 09:03:07;;;;;;;4.93;1.75;;;23.20;47.60;;;;;;5025726;28;20101;-83
2021/05/05 09:05:55;;;;;;;6.45;2.50;;;23.30;46.20;;;;;;5027525;28;20033;-82
2021/05/05 09:08:21;;;;;;;8.10;2.15;;;23.00;45.80;;;;;;5030255;28;20091;-83
2021/05/05 09:11:08;;;;;;;4.88;1.80;;;23.60;46.90;;;;;;5030740;28;20036;-83
2021/05/05 09:13:51;;;;;;;20.45;2.85;;;24.80;46.30;;;;;;5032428;28;20033;-84
2021/05/05 09:16:29;;;;;;;7.38;1.15;;;25.70;44.90;;;;;;5030953;28;20342;-82
2021/05/05 09:19:01;;;;;;;5.13;2.10;;;25.40;43.40;;;;;;5029827;28;20021;-82
2021/05/05 09:21:32;;;;;;;7.10;1.10;;;24.50;43.00;;;;;;5030085;28;20087;-84
2021/05/05 09:24:17;;;;;;;7.55;1.33;;;24.00;43.30;;;;;;5031077;28;20439;-83
2021/05/05 09:26:44;;;;;;;3.58;0.95;;;23.10;42.70;;;;;;5029912;28;20029;-83
2021/05/05 09:29:11;;;;;;;5.50;1.35;;;21.50;43.50;;;;;;5031672;28;20384;-83
2021/05/05 09:31:39;;;;;;;4.43;1.10;;;19.70;45.10;;;;;;5030845;28;20075;-82
2021/05/05 09:34:10;;;;;;;2.75;1.00;;;18.00;47.10;;;;;;5029244;28;20033;-83
2021/05/05 09:36:38;;;;;;;2.55;1.00;;;16.60;48.90;;;;;;5029448;28;20039;-82
2021/05/05 09:39:09;;;;;;;5.43;1.40;;;15.30;50.70;;;;;;5029005;28;20026;-82
2021/05/05 09:41:36;;;;;;;2.28;1.05;;;14.40;52.50;;;;;;5029428;28;20022;-82
2021/05/05 09:44:05;;;;;;;4.13;1.20;;;13.70;53.30;;;;;;5030316;28;20063;-82
2021/05/05 09:46:50;;;;;;;5.43;1.30;;;13.50;55.50;;;;;;5028807;28;20032;-83
2021/05/05 09:49:29;;;;;;;5.65;1.92;;;14.70;59.00;;;;;;5028677;28;20033;-83
2021/05/05 09:52:01;;;;;;;3.83;1.13;;;17.00;58.60;;;;;;5028682;28;20116;-83
2021/05/05 09:54:28;;;;;;;3.40;1.00;;;19.50;57.40;;;;;;5028179;28;20038;-83
2021/05/05 09:57:11;;;;;;;7.63;1.50;;;21.70;54.70;;;;;;5028038;28;20132;-81
2021/05/05 10:00:15;;;;;;;3.58;1.30;;;23.40;52.70;;;;;;5028468;28;20447;-85
2021/05/05 10:02:50;;;;;;;3.90;0.85;;;24.50;47.90;;;;;;5028954;28;20021;-83
2021/05/05 10:05:23;;;;;;;4.53;1.17;;;23.40;46.00;;;;;;5028625;28;20392;-84
2021/05/05 10:07:58;;;;;;;2.88;0.95;;;22.90;45.70;;;;;;5028533;28;20034;-84
2021/05/05 10:10:38;;;;;;;3.70;1.17;;;22.90;46.20;;;;;;5028620;28;20049;-84
2021/05/05 10:13:06;;;;;;;3.35;1.50;;;23.50;45.90;;;;;;5028680;28;20049;-83
2021/05/05 10:15:34;;;;;;;5.78;1.10;;;24.20;46.00;;;;;;5029380;28;20085;-84
2021/05/05 10:18:01;;;;;;;1.80;0.85;;;25.00;45.90;;;;;;5027740;28;20021;-83
2021/05/05 10:20:30;;;;;;;3.13;1.13;;;26.00;45.80;;;;;;5029027;28;20084;-83
2021/05/05 10:23:01;;;;;;;2.72;0.95;;;27.10;44.60;;;;;;5028526;28;20040;-85
2021/05/05 10:25:28;;;;;;;3.10;0.68;;;27.70;42.60;;;;;;5028435;28;20045;-81
2021/05/05 10:27:54;;;;;;;6.45;1.50;;;27.50;42.50;;;;;;5028243;28;20107;-82
2021/05/05 10:30:29;;;;;;;2.42;1.00;;;27.80;42.20;;;;;;5027936;28;20118;-82
2021/05/05 10:32:55;;;;;;;2.08;0.88;;;28.50;41.60;;;;;;5028543;28;20439;-83
2021/05/05 10:35:25;;;;;;;4.90;1.10;;;29.00;40.40;;;;;;5027349;28;20038;-82
2021/05/05 10:37:57;;;;;;;2.58;0.90;;;28.70;40.00;;;;;;5011968;28;20291;-82
2021/05/05 10:40:36;;;;;;;11.15;2.03;;;28.80;39.20;;;;;;5027793;28;20491;-81
2021/05/05 10:43:04;;;;;;;2.70;1.00;;;28.60;38.90;;;;;;5029472;28;20036;-82
2021/05/05 10:45:38;;;;;;;5.57;0.90;;;27.80;37.80;;;;;;5028980;28;20113;-84
2021/05/05 10:48:08;;;;;;;7.05;1.17;;;26.30;37.30;;;;;;5028948;28;20362;-83
2021/05/05 10:50:50;;;;;;;4.82;1.00;;;24.70;38.20;;;;;;5027724;28;20056;-85
2021/05/05 10:53:17;;;;;;;9.27;1.55;;;23.20;38.90;;;;;;5030231;28;20037;-84
2021/05/05 10:55:47;;;;;;;4.35;1.20;;;22.20;39.90;;;;;;5029490;28;20045;-85
2021/05/05 10:58:19;;;;;;;5.45;1.85;;;21.30;40.80;;;;;;5028414;28;20396;-85
2021/05/05 11:01:02;;;;;;;6.85;1.60;;;21.10;42.00;;;;;;5027599;28;20060;-85
2021/05/05 11:03:43;;;;;;;3.55;1.17;;;20.80;42.00;;;;;;5027935;28;20547;-84
2021/05/05 11:06:30;;;;;;;3.53;0.90;;;21.20;43.60;;;;;;5029050;28;20074;-84
2021/05/05 11:09:18;;;;;;;7.53;1.33;;;22.60;43.70;;;;;;5027921;28;20027;-85
2021/05/05 11:11:47;;;;;;;5.60;1.70;;;23.60;42.00;;;;;;5030440;28;20025;-85
2021/05/05 11:14:30;;;;;;;3.03;1.55;;;23.80;41.00;;;;;;5029502;28;20120;-84
2021/05/05 11:17:03;;;;;;;3.78;1.75;;;24.20;40.30;;;;;;5028158;28;20324;-84
2021/05/05 11:19:38;;;;;;;2.42;0.90;;;24.60;39.90;;;;;;5029171;28;20484;-79
2021/05/05 11:22:08;;;;;;;6.57;1.52;;;24.60;38.80;;;;;;5028028;28;20021;-81
2021/05/05 11:24:38;;;;;;;2.42;0.70;;;23.90;38.70;;;;;;5028992;28;20029;-80
2021/05/05 11:27:06;;;;;;;11.43;1.52;;;23.00;38.90;;;;;;5028404;28;20033;-85
2021/05/05 11:29:40;;;;;;;6.35;1.42;;;22.10;39.30;;;;;;5028530;28;20324;-84
2021/05/05 11:32:07;;;;;;;3.58;0.85;;;21.20;40.20;;;;;;5027802;28;20026;-84
2021/05/05 11:34:36;;;;;;;3.33;0.90;;;20.50;40.60;;;;;;5026967;28;20448;-82
2021/05/05 11:37:08;;;;;;;2.25;0.60;;;19.90;41.50;;;;;;5029494;28;20030;-84
2021/05/05 11:39:37;;;;;;;2.90;0.50;;;19.50;41.80;;;;;;5029246;28;20030;-84
2021/05/05 11:42:06;;;;;;;3.78;1.42;;;19.00;41.90;;;;;;5028225;28;20028;-84
2021/05/05 11:44:43;;;;;;;3.28;1.00;;;19.30;42.90;;;;;;5028474;28;20022;-83
2021/05/05 11:47:11;;;;;;;1.75;0.88;;;20.10;43.20;;;;;;5028420;28;20133;-81
2021/05/05 11:49:40;;;;;;;1.10;0.70;;;21.30;43.10;;;;;;5028907;28;20396;-82
2021/05/05 11:52:34;;;;;;;2.72;0.93;;;22.40;42.00;;;;;;5027373;28;20128;-82
2021/05/05 11:55:13;;;;;;;2.15;0.77;;;22.80;40.10;;;;;;5026796;28;20048;-83
2021/05/05 11:57:47;;;;;;;2.03;0.65;;;22.60;39.90;;;;;;5026517;28;20519;-84
2021/05/05 12:00:20;;;;;;;1.42;0.73;;;22.10;39.90;;;;;;5028025;28;20116;-84
2021/05/05 12:02:58;;;;;;;7.20;2.15;;;21.50;40.00;;;;;;5026917;28;20025;-82
2021/05/05 12:05:37;;;;;;;5.03;0.70;;;20.80;40.20;;;;;;5028964;28;20384;-85
2021/05/05 12:08:20;;;;;;;3.00;0.85;;;20.00;40.70;;;;;;5027732;28;20017;-84
2021/05/05 12:10:53;;;;;;;11.02;1.45;;;19.40;41.10;;;;;;5028251;28;20038;-84
2021/05/05 12:13:31;;;;;;;3.55;1.00;;;18.70;41.80;;;;;;5026613;28;20426;-83
2021/05/05 12:16:26;;;;;;;2.08;1.00;;;18.30;42.70;;;;;;5028388;28;20018;-85
2021/05/05 12:18:52;;;;;;;2.97;1.27;;;18.10;43.00;;;;;;5027072;28;20336;-84
2021/05/05 12:21:20;;;;;;;3.83;1.60;;;18.10;43.80;;;;;;5026642;28;20080;-83
2021/05/05 12:23:48;;;;;;;5.53;2.90;;;18.90;44.60;;;;;;5028289;28;20034;-87
2021/05/05 12:26:26;;;;;;;5.28;1.90;;;20.30;44.20;;;;;;5026634;28;20311;-84
2021/05/05 12:28:54;;;;;;;2.55;1.00;;;21.50;43.40;;;;;;5028921;28;20033;-83
2021/05/05 12:31:28;;;;;;;3.78;1.30;;;22.60;42.10;;;;;;5028065;28;20063;-81
2021/05/05 12:33:57;;;;;;;2.40;1.42;;;23.20;40.90;;;;;;5028461;28;20034;-82
2021/05/05 12:36:29;;;;;;;4.82;1.00;;;23.60;40.80;;;;;;5027795;28;20496;-86
2021/05/05 12:39:00;;;;;;;6.57;2.70;;;24.10;40.00;;;;;;5028762;28;20030;-82
2021/05/05 12:41:43;;;;;;;6.10;1.30;;;24.50;39.70;;;;;;5032284;28;20392;-82
2021/05/05 12:44:10;;;;;;;6.60;1.38;;;24.80;38.80;;;;;;5031057;28;20039;-84
2021/05/05 12:49:36;;;;;;;2.83;1.05;;;25.30;39.50;;;;;;5032471;28;20114;-83
2021/05/05 12:52:04;;;;;;;1.30;0.68;;;25.60;38.70;;;;;;5030478;28;20029;-84
2021/05/05 12:54:32;;;;;;;2.25;1.27;;;25.20;37.90;;;;;;5031116;28;20411;-82
2021/05/05 12:56:59;;;;;;;4.05;1.90;;;24.20;37.80;;;;;;5014459;28;20041;-83
2021/05/05 12:59:24;;;;;;;4.50;1.30;;;23.00;38.30;;;;;;5014851;28;20030;-82
2021/05/05 13:02:05;;;;;;;6.30;1.10;;;21.90;39.40;;;;;;5032298;28;20024;-83
2021/05/05 13:04:36;;;;;;;3.30;1.30;;;21.10;41.10;;;;;;5032232;28;20021;-83
2021/05/05 13:07:02;;;;;;;4.57;1.40;;;21.20;41.90;;;;;;5031040;28;20033;-84
2021/05/05 13:09:28;;;;;;;1.75;1.02;;;21.50;42.20;;;;;;5032085;28;20388;-83